createdAt,value
2017-08-13T00:00:48.356Z,7.57
2017-08-13T00:03:15.976Z,7.27
2017-08-13T00:05:43.688Z,7.83
2017-08-13T00:08:11.299Z,7.40
2017-08-13T00:10:38.897Z,7.27
2017-08-13T00:13:06.522Z,7.80
2017-08-13T00:15:34.132Z,8.20
2017-08-13T00:18:01.757Z,7.97
2017-08-13T00:20:29.340Z,7.30
2017-08-13T00:22:56.984Z,7.00
2017-08-13T00:25:24.564Z,7.67
2017-08-13T00:27:52.476Z,8.27
2017-08-13T00:30:20.276Z,8.67
2017-08-13T00:32:47.863Z,8.17
2017-08-13T00:35:15.498Z,7.80
2017-08-13T00:37:43.205Z,7.23
2017-08-13T00:40:10.807Z,8.50
2017-08-13T00:42:38.399Z,9.03
2017-08-13T00:45:06.014Z,7.50
2017-08-13T00:47:33.601Z,8.20
2017-08-13T00:50:01.222Z,7.43
2017-08-13T00:52:28.800Z,9.37
2017-08-13T00:54:56.731Z,8.30
2017-08-13T00:57:24.318Z,9.20
2017-08-13T00:59:51.930Z,8.60
2017-08-13T01:02:20.787Z,8.70
2017-08-13T01:04:48.398Z,8.73
2017-08-13T01:07:16.018Z,9.40
2017-08-13T01:09:43.634Z,9.13
2017-08-13T01:12:11.254Z,9.03
2017-08-13T01:14:38.858Z,9.00
2017-08-13T01:17:06.453Z,8.20
2017-08-13T01:19:34.083Z,8.90
2017-08-13T01:22:02.017Z,8.80
2017-08-13T01:24:29.614Z,8.77
2017-08-13T01:26:57.219Z,8.13
2017-08-13T01:29:24.800Z,9.10
2017-08-13T01:31:52.454Z,8.33
2017-08-13T01:34:20.051Z,9.40
2017-08-13T01:36:47.649Z,8.60
2017-08-13T01:39:15.270Z,9.57
2017-08-13T01:41:42.877Z,8.93
2017-08-13T01:44:10.486Z,8.43
2017-08-13T01:46:38.075Z,9.30
2017-08-13T01:49:05.673Z,9.07
2017-08-13T01:51:34.570Z,8.43
2017-08-13T01:54:02.292Z,8.87
2017-08-13T01:56:30.009Z,8.57
2017-08-13T01:58:57.579Z,9.00
2017-08-13T02:01:25.172Z,8.80
2017-08-13T02:03:52.735Z,8.63
2017-08-13T02:06:24.317Z,9.13
2017-08-13T02:08:51.933Z,8.40
2017-08-13T02:11:19.625Z,9.33
2017-08-13T02:13:47.271Z,8.10
2017-08-13T02:16:15.215Z,8.47
2017-08-13T02:18:42.900Z,9.30
2017-08-13T02:21:10.472Z,9.40
2017-08-13T02:23:38.116Z,9.10
2017-08-13T02:26:05.721Z,9.13
2017-08-13T02:28:33.524Z,9.03
2017-08-13T02:31:01.126Z,8.83
2017-08-13T02:33:28.745Z,9.00
2017-08-13T02:35:56.675Z,8.53
2017-08-13T02:38:24.737Z,8.73
2017-08-13T02:40:52.337Z,8.93
2017-08-13T02:43:20.053Z,8.90
2017-08-13T02:45:47.656Z,8.83
2017-08-13T02:48:15.372Z,8.33
2017-08-13T02:50:42.987Z,8.20
2017-08-13T02:53:10.571Z,7.80
2017-08-13T02:55:38.157Z,9.23
2017-08-13T02:58:05.734Z,8.50
2017-08-13T03:00:33.627Z,7.73
2017-08-13T03:03:01.210Z,7.60
2017-08-13T03:05:28.783Z,7.70
2017-08-13T03:07:56.411Z,8.10
2017-08-13T03:10:24.001Z,8.10
2017-08-13T03:12:51.600Z,7.93
2017-08-13T03:15:19.183Z,8.93
2017-08-13T03:17:46.811Z,8.70
2017-08-13T03:20:14.413Z,9.27
2017-08-13T03:22:42.384Z,9.40
2017-08-13T03:25:09.964Z,10.23
2017-08-13T03:27:37.551Z,9.67
2017-08-13T03:30:05.163Z,10.10
2017-08-13T03:32:32.785Z,10.33
2017-08-13T03:35:01.452Z,9.90
2017-08-13T03:37:29.057Z,10.43
2017-08-13T03:39:56.668Z,11.30
2017-08-13T03:42:24.251Z,10.50
2017-08-13T03:44:51.892Z,10.27
2017-08-13T03:47:19.478Z,10.23
2017-08-13T03:49:47.123Z,10.00
2017-08-13T03:52:14.697Z,10.70
2017-08-13T03:54:42.761Z,10.30
2017-08-13T03:57:10.360Z,10.33
2017-08-13T03:59:37.932Z,9.90
2017-08-13T04:02:05.543Z,9.30
2017-08-13T04:04:33.169Z,10.83
2017-08-13T04:07:00.774Z,10.73
2017-08-13T04:09:28.392Z,10.23
2017-08-13T04:11:56.016Z,9.70
2017-08-13T04:14:23.604Z,9.50
2017-08-13T04:16:51.210Z,10.77
2017-08-13T04:19:18.814Z,10.60
2017-08-13T04:21:46.913Z,10.10
2017-08-13T04:24:14.518Z,10.13
2017-08-13T04:26:42.117Z,10.20
2017-08-13T04:29:09.834Z,9.00
2017-08-13T04:31:37.445Z,10.07
2017-08-13T04:34:05.055Z,9.27
2017-08-13T04:36:32.641Z,10.10
2017-08-13T04:39:00.247Z,9.27
2017-08-13T04:41:27.841Z,9.93
2017-08-13T04:43:55.769Z,9.30
2017-08-13T04:46:23.569Z,9.50
2017-08-13T04:48:51.166Z,9.20
2017-08-13T04:51:18.966Z,9.00
2017-08-13T04:53:46.562Z,8.53
2017-08-13T04:56:14.162Z,8.60
2017-08-13T04:58:41.776Z,9.37
2017-08-13T05:01:09.794Z,8.97
2017-08-13T05:03:37.389Z,8.10
2017-08-13T05:06:05.432Z,9.73
2017-08-13T05:08:33.048Z,9.07
2017-08-13T05:11:00.636Z,9.37
2017-08-13T05:13:28.255Z,8.63
2017-08-13T05:15:55.856Z,9.23
2017-08-13T05:18:23.496Z,8.37
2017-08-13T05:20:51.102Z,9.20
2017-08-13T05:23:18.739Z,8.77
2017-08-13T05:25:46.323Z,8.43
2017-08-13T05:28:13.935Z,9.20
2017-08-13T05:30:41.549Z,8.47
2017-08-13T05:33:09.539Z,9.20
2017-08-13T05:35:37.158Z,9.00
2017-08-13T05:38:04.759Z,8.93
2017-08-13T05:40:32.371Z,8.80
2017-08-13T05:42:59.980Z,9.07
2017-08-13T05:45:27.592Z,8.10
2017-08-13T05:47:55.203Z,8.33
2017-08-13T05:50:22.802Z,7.20
2017-08-13T05:52:50.395Z,8.20
2017-08-13T05:55:18.013Z,7.60
2017-08-13T05:57:45.600Z,6.67
2017-08-13T06:00:13.613Z,6.13
2017-08-13T06:02:41.201Z,6.80
2017-08-13T06:05:08.868Z,6.00
2017-08-13T06:07:36.508Z,6.77
2017-08-13T06:10:04.115Z,6.00
2017-08-13T06:12:31.748Z,6.43
2017-08-13T06:14:59.338Z,5.70
2017-08-13T06:17:26.964Z,5.90
2017-08-13T06:19:54.558Z,5.73
2017-08-13T06:22:22.281Z,5.93
2017-08-13T06:24:49.884Z,5.00
2017-08-13T06:27:17.881Z,5.13
2017-08-13T06:29:45.489Z,5.30
2017-08-13T06:32:13.078Z,5.40
2017-08-13T06:34:40.700Z,6.00
2017-08-13T06:37:08.309Z,4.73
2017-08-13T06:39:35.924Z,4.80
2017-08-13T06:42:03.517Z,5.10
2017-08-13T06:44:31.139Z,5.50
2017-08-13T06:46:58.727Z,5.07
2017-08-13T06:49:26.348Z,5.33
2017-08-13T06:51:53.956Z,5.10
2017-08-13T06:54:21.810Z,4.27
2017-08-13T06:56:49.396Z,4.20
2017-08-13T06:59:16.991Z,3.83
2017-08-13T07:01:44.589Z,4.20
2017-08-13T07:04:12.173Z,4.20
2017-08-13T07:06:39.789Z,4.47
2017-08-13T07:09:07.362Z,4.20
2017-08-13T07:11:34.981Z,4.33
2017-08-13T07:14:02.586Z,4.50
2017-08-13T07:16:30.199Z,4.50
2017-08-13T07:18:57.797Z,5.20
2017-08-13T07:21:25.448Z,4.80
2017-08-13T07:23:53.032Z,4.50
2017-08-13T07:26:20.956Z,3.97
2017-08-13T07:28:48.548Z,4.53
2017-08-13T07:31:16.267Z,4.80
2017-08-13T07:33:43.916Z,4.63
2017-08-13T07:36:11.686Z,4.80
2017-08-13T07:38:39.401Z,4.70
2017-08-13T07:41:06.990Z,4.43
2017-08-13T07:43:34.602Z,4.50
2017-08-13T07:46:02.186Z,4.20
2017-08-13T07:48:29.780Z,4.00
2017-08-13T07:50:57.375Z,3.90
2017-08-13T07:53:24.974Z,3.57
2017-08-13T07:55:52.592Z,4.00
2017-08-13T07:58:20.589Z,4.30
2017-08-13T08:00:48.188Z,4.10
2017-08-13T08:03:15.800Z,4.23
2017-08-13T08:05:43.424Z,4.10
2017-08-13T08:08:11.027Z,4.63
2017-08-13T08:10:38.652Z,4.07
2017-08-13T08:13:06.253Z,4.07
2017-08-13T08:15:33.851Z,4.37
2017-08-13T08:18:01.454Z,4.10
2017-08-13T08:20:29.347Z,3.83
2017-08-13T08:22:56.939Z,4.00
2017-08-13T08:25:24.604Z,3.97
2017-08-13T08:27:52.202Z,3.40
2017-08-13T08:30:21.226Z,4.03
2017-08-13T08:32:48.827Z,3.67
2017-08-13T08:35:16.508Z,3.90
2017-08-13T08:37:44.500Z,4.30
2017-08-13T08:40:12.122Z,3.53
2017-08-13T08:42:40.135Z,4.07
2017-08-13T08:45:07.773Z,3.60
2017-08-13T08:47:35.390Z,3.80
2017-08-13T08:50:03.055Z,3.70
2017-08-13T08:52:30.663Z,3.60
2017-08-13T08:54:58.304Z,4.03
2017-08-13T08:57:26.183Z,3.47
2017-08-13T08:59:54.293Z,3.70
2017-08-13T09:02:22.084Z,3.90
2017-08-13T09:04:49.704Z,3.20
2017-08-13T09:07:17.342Z,3.80
2017-08-13T09:09:44.962Z,3.77
2017-08-13T09:12:12.602Z,3.37
2017-08-13T09:14:40.202Z,3.53
2017-08-13T09:17:07.830Z,3.90
2017-08-13T09:19:35.427Z,3.53
2017-08-13T09:22:03.001Z,3.30
2017-08-13T09:24:30.584Z,3.33
2017-08-13T09:26:58.152Z,3.50
2017-08-13T09:29:26.137Z,3.53
2017-08-13T09:31:53.781Z,3.13
2017-08-13T09:34:21.368Z,3.27
2017-08-13T09:36:48.957Z,4.13
2017-08-13T09:39:16.570Z,3.60
2017-08-13T09:41:44.172Z,3.03
2017-08-13T09:44:11.780Z,2.57
2017-08-13T09:46:39.395Z,3.27
2017-08-13T09:49:07.045Z,3.10
2017-08-13T09:51:34.646Z,2.90
2017-08-13T09:54:02.253Z,3.17
2017-08-13T09:56:30.178Z,2.87
2017-08-13T09:58:57.772Z,3.77
2017-08-13T10:01:25.362Z,2.90
2017-08-13T10:03:52.968Z,3.10
2017-08-13T10:06:20.699Z,3.07
2017-08-13T10:08:48.283Z,3.10
2017-08-13T10:11:15.883Z,3.00
2017-08-13T10:13:43.831Z,3.00
2017-08-13T10:16:11.444Z,2.53
2017-08-13T10:18:39.115Z,2.80
2017-08-13T10:21:06.722Z,2.77
2017-08-13T10:23:34.320Z,2.27
2017-08-13T10:26:01.940Z,2.43
2017-08-13T10:28:29.572Z,2.10
2017-08-13T10:30:57.426Z,2.17
2017-08-13T10:33:25.020Z,2.57
2017-08-13T10:35:52.609Z,2.47
2017-08-13T10:38:20.243Z,2.73
2017-08-13T10:40:47.842Z,2.57
2017-08-13T10:43:15.490Z,2.63
2017-08-13T10:45:43.769Z,2.80
2017-08-13T10:48:11.739Z,2.50
2017-08-13T10:50:39.327Z,2.20
2017-08-13T10:53:07.100Z,2.20
2017-08-13T10:55:34.899Z,2.20
2017-08-13T10:58:02.488Z,2.50
2017-08-13T11:03:03.932Z,2.20
2017-08-13T11:05:31.971Z,2.20
2017-08-13T11:07:59.575Z,2.63
2017-08-13T11:10:27.165Z,2.30
2017-08-13T11:12:54.768Z,2.40
2017-08-13T11:15:22.353Z,2.20
2017-08-13T11:17:49.976Z,2.80
2017-08-13T11:20:17.585Z,2.43
2017-08-13T11:22:45.574Z,2.57
2017-08-13T11:25:13.154Z,2.07
2017-08-13T11:27:40.758Z,2.30
2017-08-13T11:30:08.354Z,2.23
2017-08-13T11:32:35.961Z,2.17
2017-08-13T11:35:03.600Z,2.37
2017-08-13T11:37:31.175Z,2.60
2017-08-13T11:39:59.080Z,2.10
2017-08-13T11:42:26.681Z,2.00
2017-08-13T11:44:54.265Z,2.40
2017-08-13T11:47:21.926Z,2.27
2017-08-13T11:49:49.695Z,2.40
2017-08-13T11:52:17.322Z,2.30
2017-08-13T11:54:44.997Z,2.57
2017-08-13T11:57:12.883Z,2.10
2017-08-13T11:59:40.509Z,2.20
2017-08-13T12:02:08.322Z,2.30
2017-08-13T12:04:36.159Z,2.13
2017-08-13T12:07:03.760Z,2.43
2017-08-13T12:09:31.399Z,2.10
2017-08-13T12:11:58.967Z,2.13
2017-08-13T12:14:27.109Z,2.50
2017-08-13T12:16:54.885Z,2.33
2017-08-13T12:19:22.479Z,2.63
2017-08-13T12:21:50.133Z,2.17
2017-08-13T12:24:17.756Z,2.30
2017-08-13T12:26:45.779Z,2.10
2017-08-13T12:29:13.370Z,2.10
2017-08-13T12:31:41.349Z,2.33
2017-08-13T12:34:09.134Z,2.40
2017-08-13T12:36:36.773Z,2.40
2017-08-13T12:39:04.413Z,2.13
2017-08-13T12:41:32.035Z,2.37
2017-08-13T12:44:00.106Z,2.27
2017-08-13T12:46:27.767Z,2.20
2017-08-13T12:48:55.381Z,2.07
2017-08-13T12:51:23.025Z,2.43
2017-08-13T12:53:50.632Z,2.27
2017-08-13T12:56:18.369Z,2.37
2017-08-13T12:58:46.655Z,2.13
2017-08-13T13:01:14.633Z,2.00
2017-08-13T13:03:42.239Z,2.40
2017-08-13T13:06:09.837Z,2.03
2017-08-13T13:08:37.450Z,2.10
2017-08-13T13:11:05.063Z,2.10
2017-08-13T13:13:32.684Z,2.23
2017-08-13T13:16:00.383Z,1.90
2017-08-13T13:18:28.299Z,1.77
2017-08-13T13:20:55.964Z,2.60
2017-08-13T13:23:23.766Z,2.17
2017-08-13T13:25:51.375Z,2.10
2017-08-13T13:28:18.953Z,2.07
2017-08-13T13:30:46.610Z,2.20
2017-08-13T13:33:14.213Z,2.30
2017-08-13T13:35:42.183Z,2.00
2017-08-13T13:38:09.761Z,2.23
2017-08-13T13:40:37.363Z,1.93
2017-08-13T13:43:04.983Z,2.20
2017-08-13T13:45:32.603Z,2.37
2017-08-13T13:48:00.303Z,1.70
2017-08-13T13:50:27.907Z,1.70
2017-08-13T13:52:55.907Z,2.10
2017-08-13T13:55:23.494Z,2.00
2017-08-13T13:57:51.105Z,1.80
2017-08-13T14:00:18.706Z,1.80
2017-08-13T14:02:46.330Z,2.47
2017-08-13T14:05:13.944Z,2.17
2017-08-13T14:07:41.534Z,2.10
2017-08-13T14:10:09.476Z,1.90
2017-08-13T14:12:37.147Z,1.83
2017-08-13T14:15:04.769Z,1.80
2017-08-13T14:17:32.410Z,1.97
2017-08-13T14:20:00.030Z,2.03
2017-08-13T14:22:27.734Z,1.90
2017-08-13T14:24:55.498Z,1.90
2017-08-13T14:27:23.214Z,1.90
2017-08-13T14:29:50.881Z,2.13
2017-08-13T14:32:18.508Z,1.73
2017-08-13T14:34:46.166Z,1.53
2017-08-13T14:37:13.801Z,1.70
2017-08-13T14:39:41.491Z,2.07
2017-08-13T14:42:09.372Z,1.70
2017-08-13T14:44:37.037Z,2.00
2017-08-13T14:47:04.642Z,2.10
2017-08-13T14:49:32.764Z,2.20
2017-08-13T14:52:00.530Z,2.00
2017-08-13T14:54:28.176Z,2.20
2017-08-13T14:56:55.834Z,1.90
2017-08-13T14:59:23.686Z,2.07
2017-08-13T15:01:51.369Z,2.03
2017-08-13T15:04:18.973Z,1.90
2017-08-13T15:06:46.597Z,2.00
2017-08-13T15:09:14.187Z,1.73
2017-08-13T15:11:41.945Z,1.60
2017-08-13T15:14:09.536Z,1.70
2017-08-13T15:16:37.475Z,1.63
2017-08-13T15:19:05.065Z,1.40
2017-08-13T15:21:32.625Z,1.90
2017-08-13T15:24:00.249Z,1.70
2017-08-13T15:26:27.842Z,1.80
2017-08-13T15:28:55.475Z,1.70
2017-08-13T15:31:23.075Z,1.70
2017-08-13T15:33:50.700Z,1.40
2017-08-13T15:36:19.557Z,1.60
2017-08-13T15:38:47.186Z,1.70
2017-08-13T15:41:14.779Z,1.73
2017-08-13T15:43:42.802Z,1.60
2017-08-13T15:46:10.394Z,1.83
2017-08-13T15:48:38.150Z,1.40
2017-08-13T15:51:05.834Z,1.50
2017-08-13T15:53:33.529Z,1.80
2017-08-13T15:56:01.242Z,1.40
2017-08-13T15:58:29.027Z,1.40
2017-08-13T16:00:56.879Z,1.60
2017-08-13T16:03:24.455Z,2.40
2017-08-13T16:05:52.075Z,1.77
2017-08-13T16:08:19.673Z,1.60
2017-08-13T16:10:47.311Z,1.60
2017-08-13T16:13:14.990Z,1.80
2017-08-13T16:15:42.994Z,1.60
2017-08-13T16:18:10.587Z,1.47
2017-08-13T16:20:38.636Z,1.40
2017-08-13T16:23:06.316Z,1.63
2017-08-13T16:25:33.921Z,1.60
2017-08-13T16:28:01.578Z,1.70
2017-08-13T16:30:29.240Z,1.90
2017-08-13T16:32:56.871Z,1.80
2017-08-13T16:35:24.566Z,1.50
2017-08-13T16:37:52.203Z,1.77
2017-08-13T16:40:19.845Z,2.00
2017-08-13T16:42:47.831Z,1.77
2017-08-13T16:45:15.412Z,2.00
2017-08-13T16:47:43.027Z,2.20
2017-08-13T16:50:10.658Z,1.80
2017-08-13T16:52:38.251Z,1.70
2017-08-13T16:55:05.944Z,2.10
2017-08-13T16:57:33.624Z,2.17
2017-08-13T17:00:01.319Z,2.23
2017-08-13T17:02:29.087Z,1.87
2017-08-13T17:04:56.714Z,2.20
2017-08-13T17:07:24.365Z,2.30
2017-08-13T17:09:51.982Z,2.07
2017-08-13T17:12:19.684Z,2.10
2017-08-13T17:14:47.625Z,1.80
2017-08-13T17:17:15.301Z,2.00
2017-08-13T17:19:42.934Z,2.30
2017-08-13T17:22:10.670Z,2.50
2017-08-13T17:24:38.279Z,2.30
2017-08-13T17:27:06.087Z,2.40
2017-08-13T17:29:33.724Z,2.10
2017-08-13T17:32:01.325Z,2.83
2017-08-13T17:34:28.909Z,2.70
2017-08-13T17:36:56.608Z,3.60
2017-08-13T17:39:24.214Z,2.13
2017-08-13T17:41:51.859Z,2.50
2017-08-13T17:44:19.561Z,2.30
2017-08-13T17:46:50.577Z,2.67
2017-08-13T17:49:18.202Z,2.90
2017-08-13T17:51:45.788Z,2.80
2017-08-13T17:54:13.398Z,2.90
2017-08-13T17:56:41.095Z,2.37
2017-08-13T17:59:08.933Z,2.50
2017-08-13T18:01:37.723Z,2.70
2017-08-13T18:04:05.807Z,2.75
2017-08-13T18:06:33.458Z,2.37
2017-08-13T18:09:01.188Z,2.67
2017-08-13T18:11:28.821Z,2.75
2017-08-13T18:13:56.530Z,2.80
2017-08-13T18:16:24.208Z,2.57
2017-08-13T18:18:52.059Z,3.00
2017-08-13T18:21:19.774Z,2.60
2017-08-13T18:23:47.374Z,2.60
2017-08-13T18:26:15.031Z,2.50
2017-08-13T18:28:42.627Z,2.60
2017-08-13T18:31:10.577Z,2.43
2017-08-13T18:33:38.247Z,2.77
2017-08-13T18:36:05.941Z,2.50
2017-08-13T18:38:33.540Z,2.83
2017-08-13T18:41:01.261Z,3.07
2017-08-13T18:43:29.065Z,4.20
2017-08-13T18:45:56.702Z,2.93
2017-08-13T18:48:24.303Z,3.07
2017-08-13T18:50:51.908Z,3.40
2017-08-13T18:53:19.549Z,3.67
2017-08-13T18:55:47.145Z,3.20
2017-08-13T18:58:15.323Z,3.07
2017-08-13T19:00:42.941Z,3.20
2017-08-13T19:03:10.761Z,3.83
2017-08-13T19:05:38.380Z,3.37
2017-08-13T19:08:06.073Z,3.50
2017-08-13T19:10:34.113Z,3.70
2017-08-13T19:13:01.799Z,3.50
2017-08-13T19:15:29.415Z,3.83
2017-08-13T19:17:57.055Z,5.27
2017-08-13T19:20:24.802Z,4.53
2017-08-13T19:22:52.612Z,4.23
2017-08-13T19:25:20.376Z,4.10
2017-08-13T19:27:48.169Z,3.70
2017-08-13T19:30:15.846Z,4.20
2017-08-13T19:32:44.198Z,4.00
2017-08-13T19:35:11.783Z,4.33
2017-08-13T19:37:39.390Z,4.80
2017-08-13T19:40:07.033Z,3.97
2017-08-13T19:42:34.677Z,3.37
2017-08-13T19:45:02.342Z,3.50
2017-08-13T19:47:30.040Z,3.53
2017-08-13T19:49:58.342Z,4.13
2017-08-13T19:52:25.933Z,3.93
2017-08-13T19:54:53.516Z,4.17
2017-08-13T19:57:21.227Z,3.80
2017-08-13T19:59:48.834Z,3.43
2017-08-13T20:02:16.756Z,3.53
2017-08-13T20:04:44.394Z,3.30
2017-08-13T20:07:12.215Z,3.67
2017-08-13T20:09:39.837Z,3.97
2017-08-13T20:12:10.279Z,4.37
2017-08-13T20:14:37.917Z,4.70
2017-08-13T20:17:05.481Z,3.40
2017-08-13T20:19:33.581Z,3.40
2017-08-13T20:22:01.281Z,3.30
2017-08-13T20:24:28.889Z,4.37
2017-08-13T20:26:56.523Z,7.40
2017-08-13T20:29:24.145Z,3.50
2017-08-13T20:31:53.263Z,3.30
2017-08-13T20:34:20.842Z,3.77
2017-08-13T20:36:48.542Z,3.60
2017-08-13T20:39:16.158Z,3.73
2017-08-13T20:41:43.798Z,4.23
2017-08-13T20:44:11.384Z,3.67
2017-08-13T20:46:39.007Z,3.60
2017-08-13T20:49:06.689Z,3.80
2017-08-13T20:51:34.296Z,4.10
2017-08-13T20:54:01.882Z,3.50
2017-08-13T20:56:29.459Z,3.33
2017-08-13T20:58:57.086Z,4.07
2017-08-13T21:01:24.806Z,4.10
2017-08-13T21:03:52.814Z,3.53
2017-08-13T21:06:20.441Z,4.00
2017-08-13T21:08:48.198Z,3.50
2017-08-13T21:11:15.804Z,3.70
2017-08-13T21:13:43.632Z,4.30
2017-08-13T21:16:11.237Z,4.03
2017-08-13T21:18:38.841Z,4.03
2017-08-13T21:21:07.526Z,4.67
2017-08-13T21:23:35.120Z,3.77
2017-08-13T21:26:03.120Z,3.90
2017-08-13T21:28:30.725Z,3.80
2017-08-13T21:30:58.313Z,4.50
2017-08-13T21:33:25.941Z,4.53
2017-08-13T21:35:53.693Z,4.70
2017-08-13T21:38:21.322Z,4.10
2017-08-13T21:40:49.344Z,4.30
2017-08-13T21:43:17.259Z,4.70
2017-08-13T21:45:44.873Z,4.60
2017-08-13T21:48:12.448Z,4.20
2017-08-13T21:50:40.365Z,5.20
2017-08-13T21:53:07.994Z,4.80
2017-08-13T21:55:35.605Z,5.00
2017-08-13T21:58:03.211Z,4.60
2017-08-13T22:00:31.267Z,4.73
2017-08-13T22:02:59.563Z,4.40
2017-08-13T22:05:27.154Z,4.70
2017-08-13T22:07:54.769Z,4.27
2017-08-13T22:10:22.361Z,4.73
2017-08-13T22:12:50.015Z,4.63
2017-08-13T22:15:17.595Z,4.60
2017-08-13T22:17:45.463Z,4.63
2017-08-13T22:20:13.078Z,4.60
2017-08-13T22:22:40.669Z,4.67
2017-08-13T22:25:08.302Z,4.77
2017-08-13T22:27:35.896Z,4.93
2017-08-13T22:30:03.519Z,4.60
2017-08-13T22:32:31.096Z,4.13
2017-08-13T22:34:59.114Z,4.90
2017-08-13T22:37:26.703Z,4.80
2017-08-13T22:39:54.349Z,4.50
2017-08-13T22:42:21.955Z,4.83
2017-08-13T22:44:49.543Z,5.73
2017-08-13T22:47:17.161Z,4.60
2017-08-13T22:49:44.748Z,4.50
2017-08-13T22:52:12.730Z,4.70
2017-08-13T22:54:40.335Z,5.13
2017-08-13T22:57:07.907Z,4.47
2017-08-13T22:59:35.513Z,5.17
2017-08-13T23:02:03.114Z,4.83
2017-08-13T23:04:30.725Z,5.40
2017-08-13T23:06:58.345Z,4.90
2017-08-13T23:09:25.929Z,4.30
2017-08-13T23:11:53.810Z,4.50
2017-08-13T23:14:21.567Z,4.83
2017-08-13T23:16:49.160Z,4.77
2017-08-13T23:19:16.790Z,4.53
2017-08-13T23:21:44.398Z,4.53
2017-08-13T23:24:12.027Z,5.30
2017-08-13T23:26:39.618Z,4.47
2017-08-13T23:29:07.487Z,4.60
2017-08-13T23:31:35.081Z,4.53
2017-08-13T23:34:02.666Z,5.23
2017-08-13T23:36:30.313Z,5.17
2017-08-13T23:38:57.900Z,4.70
2017-08-13T23:41:25.495Z,5.03
2017-08-13T23:43:53.102Z,5.03
2017-08-13T23:46:20.736Z,5.30
2017-08-13T23:48:48.392Z,4.83
2017-08-13T23:51:16.319Z,4.80
2017-08-13T23:53:44.028Z,5.00
2017-08-13T23:56:11.676Z,5.30
2017-08-13T23:58:39.274Z,5.03
